Aviation Digital Data Service (ADDS)

Output produced by METARs form (1906 UTC 01 September 2014)
found at http://www.aviationweather.gov/adds/metars/
 
KCXY 011856Z VRB04KT 10SM FEW036 SCT080 29/21 A2996 RMK AO2 SLP144 T02890211
KCXY 011756Z 00000KT 10SM BKN049 BKN055 28/21 A2998 RMK AO2 SLP151 T02780206 10283 20217 58011
KCXY 011656Z 26006KT 10SM BKN041 OVC055 27/21 A3000 RMK AO2 SLP156 T02670206
KCXY 011556Z 26004KT 10SM BKN045 OVC055 27/21 A3001 RMK AO2 SLP159 T02670211
KCXY 011456Z 00000KT 10SM BKN050 BKN070 26/21 A3002 RMK AO2 SLP163 T02610211 58005
KCXY 011356Z 33003KT 10SM BKN033 OVC060 24/22 A3003 RMK AO2 SLP167 T02390217
KCXY 011256Z 00000KT 10SM CLR 23/22 A3002 RMK AO2 SLP165 T02330217
KCXY 011156Z 00000KT 10SM BKN046 22/21 A3003 RMK AO2 SLP167 60000 70015 T02170211 10217 20206 51006
KCXY 011056Z 00000KT 10SM CLR 21/21 A3003 RMK AO2 RAB09E20 SLP166 P0000 T02110206
KCXY 010956Z AUTO 00000KT 10SM OVC060 22/21 A3002 RMK AO2 RAB09E16 SLP164 P0000 T02170206
KCXY 010856Z AUTO 00000KT 10SM OVC065 21/21 A3001 RMK AO2 SLP162 T02110206 52001
KCXY 010756Z AUTO 00000KT 10SM SCT047 BKN055 OVC080 21/21 A3001 RMK AO2 SLP162 T02110206
KCXY 010656Z AUTO 00000KT 10SM FEW060 21/21 A3001 RMK AO2 SLP160 T02110206
KCXY 010556Z AUTO 00000KT 10SM BKN045 22/21 A3001 RMK AO2 SLP161 60015 T02170206 10267 20211 58002
KCXY 010456Z AUTO 00000KT 10SM FEW044 SCT055 22/21 A3002 RMK AO2 SLP163 T02170206 403060217
KCXY 010356Z AUTO 00000KT 10SM CLR 22/21 A3002 RMK AO2 SLP163 T02220211
KCXY 010256Z AUTO 00000KT 10SM BKN110 22/21 A3002 RMK AO2 RAE36 SLP163 P0000 60015 T02220211 50005
KCXY 010156Z AUTO 00000KT 10SM -RA FEW030 SCT044 OVC100 23/22 A3003 RMK AO2 RAB31 SLP166 P0015 T02280217
KCXY 010145Z AUTO 22004KT 3SM RA BR FEW029 BKN049 OVC100 23/22 A3003 RMK AO2 RAB31 P0014 T02280217
KCXY 010137Z AUTO 24009KT 1 3/4SM R08/5500VP6000FT +RA BR FEW022 BKN034 OVC060 24/22 A3004 RMK AO2 RAB31 P0012 T02390217
KCXY 010056Z AUTO 00000KT 10SM BKN090 OVC100 25/22 A3002 RMK AO2 RAB03E13 SLP162 P0000 T02500217
KCXY 312356Z 31003KT 10SM OVC085 27/21 A3000 RMK AO2 SLP158 T02670206 10306 20267 51008
KCXY 312256Z 31008KT 10SM BKN110 27/21 A2999 RMK AO2 SLP155 T02720206
KCXY 312156Z 28008G17KT 10SM SCT060 BKN120 28/19 A2999 RMK AO2 SLP154 T02830194
KCXY 312056Z 27008KT 10SM BKN060 29/19 A2998 RMK AO2 SLP150 T02940189 56015
KCXY 311956Z 27010KT 10SM FEW050 SCT070 BKN095 30/20 A2998 RMK AO2 SLP151 T03000200
KCXY 311856Z 28007KT 240V300 10SM FEW040 FEW048 SCT065 30/21 A2999 RMK AO2 SLP155 T03000206
KCXY 311756Z 26010KT 10SM SCT095 BKN120 29/21 A3002 RMK AO2 SLP165 T02890211 10289 20239 58011
KCXY 311656Z 21006KT 10SM SCT095 28/22 A3004 RMK AO2 SLP171 T02780217
KCXY 311556Z VRB03KT 10SM FEW019 SCT026 BKN100 27/22 A3005 RMK AO2 SLP175 T02670217
KCXY 311456Z 19004KT 10SM FEW017 OVC110 26/22 A3006 RMK AO2 SLP176 T02610217 58011
KCXY 311443Z 17003KT 10SM FEW017 SCT023 OVC100 26/22 A3006 RMK AO2 T02610217
KCXY 311356Z 25003KT 10SM BKN018 OVC022 25/22 A3009 RMK AO2 SLP186 T02500217
KCXY 311256Z 24007KT 9SM BKN015 25/22 A3009 RMK AO2 SLP187 T02500217
KCXY 311252Z 23007KT 9SM BKN015 24/22 A3009 RMK AO2
KCXY 311156Z 00000KT 8SM OVC011 24/22 A3009 RMK AO2 SLP187 T02390217 10239 20222 53003
KCXY 311056Z VRB05KT 8SM OVC011 24/22 A3008 RMK AO2 SLP185 T02390217
KCXY 310956Z AUTO 00000KT 10SM OVC011 23/21 A3008 RMK AO2 SLP184 T02330211
KCXY 310856Z AUTO 07003KT 10SM OVC013 23/21 A3008 RMK AO2 SLP184 T02280211 58011
KCXY 310756Z AUTO 00000KT 10SM OVC012 23/21 A3009 RMK AO2 SLP188 T02280206